Time;durP1;ratioP1;P1;durP2;ratioP2;P2;SDS_P1;SDS_P2;PMS_P1;PMS_P2;Temp;Humidity;BMP_temperature;BMP_pressure;BME280_temperature;BME280_humidity;BME280_pressure;Samples;Min_cycle;Max_cycle;Signal;HPM_P1;HPM_P2
2021/03/21 00:01:18;;;;;;;3.40;2.83;;;;;;;;;;5047880;28;20200;-69
2021/03/21 00:03:43;;;;;;;3.47;2.63;;;;;;;;;;5047188;28;20173;-67
2021/03/21 00:06:08;;;;;;;3.93;2.77;;;;;;;;;;5047708;28;20196;-69
2021/03/21 00:08:34;;;;;;;2.97;2.67;;;;;;;;;;5048451;28;20202;-68
2021/03/21 00:11:01;;;;;;;2.63;2.43;;;;;;;;;;5040453;28;20202;-67
2021/03/21 00:13:26;;;;;;;2.80;2.40;;;;;;;;;;5037154;28;20186;-69
2021/03/21 00:15:52;;;;;;;3.93;2.77;;;;;;;;;;5043815;28;20272;-68
2021/03/21 00:18:18;;;;;;;2.93;2.50;;;;;;;;;;5049599;28;20174;-68
2021/03/21 00:20:44;;;;;;;2.77;2.57;;;;;;;;;;5049779;28;20636;-68
2021/03/21 00:23:09;;;;;;;2.87;2.40;;;;;;;;;;5045477;28;20173;-68
2021/03/21 00:25:35;;;;;;;3.10;2.77;;;;;;;;;;5046980;28;20184;-69
2021/03/21 00:28:03;;;;;;;3.30;2.60;;;;;;;;;;5046005;28;20202;-68
2021/03/21 00:30:30;;;;;;;3.60;2.67;;;;;;;;;;5045087;28;20205;-68
2021/03/21 00:32:56;;;;;;;3.47;2.20;;;;;;;;;;5040447;28;20260;-68
2021/03/21 00:35:21;;;;;;;2.97;2.67;;;;;;;;;;5037694;28;20186;-68
2021/03/21 00:37:46;;;;;;;2.70;2.47;;;;;;;;;;5042145;28;20573;-68
2021/03/21 00:40:15;;;;;;;4.10;2.23;;;;;;;;;;5043548;28;20200;-69
2021/03/21 00:42:41;;;;;;;3.67;2.53;;;;;;;;;;5048143;28;20181;-69
2021/03/21 00:45:06;;;;;;;9.20;3.17;;;;;;;;;;5046042;28;20192;-68
2021/03/21 00:47:32;;;;;;;3.63;2.80;;;;;;;;;;5049114;28;20198;-68
2021/03/21 00:49:57;;;;;;;4.27;2.67;;;;;;;;;;5046519;28;20224;-68
2021/03/21 00:52:22;;;;;;;3.57;2.27;;;;;;;;;;5042960;28;20210;-68
2021/03/21 00:54:47;;;;;;;3.00;2.70;;;;;;;;;;5042884;28;20306;-68
2021/03/21 00:57:12;;;;;;;3.57;3.27;;;;;;;;;;5045918;28;20257;-69
2021/03/21 00:59:39;;;;;;;2.60;2.40;;;;;;;;;;5047170;28;20201;-68
2021/03/21 01:02:04;;;;;;;3.63;2.97;;;;;;;;;;5044866;28;20206;-68
2021/03/21 01:04:30;;;;;;;4.10;3.20;;;;;;;;;;5046812;28;20609;-67
2021/03/21 01:06:55;;;;;;;4.93;3.90;;;;;;;;;;5047515;28;20181;-68
2021/03/21 01:09:20;;;;;;;3.97;3.57;;;;;;;;;;5047575;28;20655;-67
2021/03/21 01:11:45;;;;;;;4.77;3.60;;;;;;;;;;5048008;28;20390;-68
2021/03/21 01:14:10;;;;;;;5.53;4.07;;;;;;;;;;5048032;28;20173;-67
2021/03/21 01:16:37;;;;;;;4.57;3.70;;;;;;;;;;5048236;28;20182;-68
2021/03/21 01:19:03;;;;;;;6.60;5.27;;;;;;;;;;5045434;28;20178;-68
2021/03/21 01:21:30;;;;;;;6.87;4.83;;;;;;;;;;5048692;28;20284;-68
2021/03/21 01:23:56;;;;;;;5.33;4.70;;;;;;;;;;5047480;28;20551;-68
2021/03/21 01:26:23;;;;;;;7.50;5.10;;;;;;;;;;5049532;28;20192;-68
2021/03/21 01:28:48;;;;;;;5.60;4.73;;;;;;;;;;5046957;28;20267;-67
2021/03/21 01:31:16;;;;;;;6.53;5.40;;;;;;;;;;5047435;28;20190;-68
2021/03/21 01:33:41;;;;;;;7.63;5.90;;;;;;;;;;5047805;28;20602;-68
2021/03/21 01:36:14;;;;;;;7.07;5.40;;;;;;;;;;5047011;28;20169;-68
2021/03/21 01:38:39;;;;;;;10.27;5.47;;;;;;;;;;5049472;28;20183;-68
2021/03/21 01:41:05;;;;;;;8.03;6.37;;;;;;;;;;5046234;28;20197;-68
2021/03/21 01:43:38;;;;;;;8.27;6.60;;;;;;;;;;5040943;28;20680;-67
2021/03/21 01:46:04;;;;;;;10.77;7.10;;;;;;;;;;5047142;28;20182;-68
2021/03/21 01:48:32;;;;;;;10.47;7.67;;;;;;;;;;5053186;28;20216;-68
2021/03/21 01:50:59;;;;;;;11.07;8.50;;;;;;;;;;5049093;28;20690;-68
2021/03/21 01:53:27;;;;;;;11.97;9.00;;;;;;;;;;5048917;28;20606;-67
2021/03/21 01:55:54;;;;;;;16.10;10.10;;;;;;;;;;5049338;28;20178;-68
2021/03/21 01:58:20;;;;;;;15.23;12.13;;;;;;;;;;5047298;28;20183;-68
2021/03/21 02:00:46;;;;;;;15.73;12.30;;;;;;;;;;5045184;28;20201;-68
2021/03/21 02:03:13;;;;;;;18.80;14.23;;;;;;;;;;5051749;28;20177;-68
2021/03/21 02:05:39;;;;;;;18.10;12.80;;;;;;;;;;5050663;28;20181;-66
2021/03/21 02:08:10;;;;;;;18.73;14.63;;;;;;;;;;5048097;28;20967;-68
2021/03/21 02:10:44;;;;;;;17.17;14.93;;;;;;;;;;5045157;28;20279;-68
2021/03/21 02:13:16;;;;;;;18.23;14.60;;;;;;;;;;5047464;28;20180;-66
2021/03/21 02:15:47;;;;;;;19.97;15.20;;;;;;;;;;5047351;28;20217;-67
2021/03/21 02:18:31;;;;;;;20.60;15.70;;;;;;;;;;5050152;28;20189;-68
2021/03/21 02:20:56;;;;;;;19.20;15.10;;;;;;;;;;5048323;28;20194;-67
2021/03/21 02:23:41;;;;;;;21.50;16.95;;;;;;;;;;5042836;28;20181;-67
2021/03/21 02:26:24;;;;;;;20.77;16.57;;;;;;;;;;5048940;28;20177;-67
2021/03/21 02:28:52;;;;;;;20.23;15.80;;;;;;;;;;5050520;28;20193;-66
2021/03/21 02:31:23;;;;;;;21.20;15.67;;;;;;;;;;5049914;28;20257;-67
2021/03/21 02:33:54;;;;;;;23.33;16.03;;;;;;;;;;5047665;28;20190;-67
2021/03/21 02:36:21;;;;;;;21.50;16.50;;;;;;;;;;5050413;28;20182;-68
2021/03/21 02:38:55;;;;;;;21.00;15.90;;;;;;;;;;5052977;28;20189;-68
2021/03/21 02:41:32;;;;;;;19.20;15.00;;;;;;;;;;5049265;28;20198;-68
2021/03/21 02:44:10;;;;;;;21.67;14.87;;;;;;;;;;5041944;28;20185;-68
2021/03/21 02:46:37;;;;;;;21.10;15.67;;;;;;;;;;5049258;28;20609;-68
2021/03/21 02:49:24;;;;;;;21.87;15.33;;;;;;;;;;5050038;28;20197;-66
2021/03/21 02:51:53;;;;;;;19.93;14.83;;;;;;;;;;5045011;28;20240;-68
2021/03/21 02:54:22;;;;;;;21.13;15.83;;;;;;;;;;5045425;28;20186;-68
2021/03/21 02:56:52;;;;;;;19.17;14.70;;;;;;;;;;5049632;28;20181;-68
2021/03/21 02:59:20;;;;;;;19.17;14.37;;;;;;;;;;5050766;28;20340;-68
2021/03/21 03:01:50;;;;;;;19.50;15.50;;;;;;;;;;5050544;28;20281;-68
2021/03/21 03:04:18;;;;;;;20.47;15.30;;;;;;;;;;5041755;28;20213;-68
2021/03/21 03:06:47;;;;;;;18.00;14.63;;;;;;;;;;5048162;28;20177;-68
2021/03/21 03:09:18;;;;;;;18.13;14.30;;;;;;;;;;5047752;28;20206;-67
2021/03/21 03:11:48;;;;;;;20.10;14.40;;;;;;;;;;5049058;28;20194;-68
2021/03/21 03:14:17;;;;;;;19.43;14.60;;;;;;;;;;5051139;28;20177;-68
2021/03/21 03:16:42;;;;;;;21.00;14.97;;;;;;;;;;5044826;28;20557;-68
2021/03/21 03:19:18;;;;;;;19.53;13.93;;;;;;;;;;5052115;28;20176;-67
2021/03/21 03:21:47;;;;;;;20.50;14.77;;;;;;;;;;5047961;28;20189;-68
2021/03/21 03:24:31;;;;;;;19.23;13.90;;;;;;;;;;5048293;28;20189;-68
2021/03/21 03:27:08;;;;;;;19.13;14.17;;;;;;;;;;5047994;28;20178;-67
2021/03/21 03:29:35;;;;;;;21.90;15.17;;;;;;;;;;5048695;28;20698;-68
2021/03/21 03:32:02;;;;;;;22.93;13.97;;;;;;;;;;5051638;28;20296;-68
2021/03/21 03:34:30;;;;;;;19.23;14.07;;;;;;;;;;5041364;28;20181;-68
2021/03/21 03:36:55;;;;;;;19.03;14.33;;;;;;;;;;5049604;28;20239;-67
2021/03/21 03:39:21;;;;;;;18.37;13.93;;;;;;;;;;5050746;28;20618;-68
2021/03/21 03:41:53;;;;;;;18.50;13.80;;;;;;;;;;5049820;28;20191;-68
2021/03/21 03:44:27;;;;;;;20.57;13.23;;;;;;;;;;5042477;28;20320;-68
2021/03/21 03:47:04;;;;;;;18.07;13.13;;;;;;;;;;5049982;28;20235;-68
2021/03/21 03:49:48;;;;;;;22.03;13.40;;;;;;;;;;5043696;28;20244;-67
2021/03/21 03:52:28;;;;;;;19.93;12.97;;;;;;;;;;5046276;28;20181;-68
2021/03/21 03:55:14;;;;;;;20.57;13.20;;;;;;;;;;5046079;28;20181;-68
2021/03/21 03:57:48;;;;;;;18.30;11.50;;;;;;;;;;5043432;28;20190;-68
2021/03/21 04:00:26;;;;;;;19.07;13.33;;;;;;;;;;5047812;28;20205;-68
2021/03/21 04:02:52;;;;;;;18.60;12.67;;;;;;;;;;5046370;28;20185;-68
2021/03/21 04:05:19;;;;;;;23.20;14.48;;;;;;;;;;5048393;28;20261;-68
2021/03/21 04:07:56;;;;;;;23.60;13.93;;;;;;;;;;5047780;28;20201;-68
2021/03/21 04:10:24;;;;;;;28.40;14.10;;;;;;;;;;5036012;28;20194;-67
2021/03/21 04:13:07;;;;;;;21.50;13.80;;;;;;;;;;5050014;28;20193;-68
2021/03/21 04:15:35;;;;;;;23.90;13.73;;;;;;;;;;5045251;28;21109;-69
2021/03/21 04:18:10;;;;;;;25.87;15.13;;;;;;;;;;5037570;28;20223;-69
2021/03/21 04:20:37;;;;;;;22.70;14.17;;;;;;;;;;5044889;28;20196;-66
2021/03/21 04:23:05;;;;;;;23.73;14.27;;;;;;;;;;5047762;28;20532;-68
2021/03/21 04:25:33;;;;;;;19.47;13.37;;;;;;;;;;5051298;28;20193;-66
2021/03/21 04:28:01;;;;;;;19.20;12.07;;;;;;;;;;5043146;28;20204;-67
2021/03/21 04:30:32;;;;;;;24.53;12.13;;;;;;;;;;5042511;28;20259;-68
2021/03/21 04:32:59;;;;;;;19.73;11.40;;;;;;;;;;5048756;28;20279;-66
2021/03/21 04:35:28;;;;;;;19.93;10.67;;;;;;;;;;5049362;28;20216;-66
2021/03/21 04:37:55;;;;;;;19.47;9.77;;;;;;;;;;5048839;28;20286;-67
2021/03/21 04:40:22;;;;;;;16.97;8.80;;;;;;;;;;5048296;28;20201;-67
2021/03/21 04:42:52;;;;;;;12.33;8.67;;;;;;;;;;5048327;28;20659;-67
2021/03/21 04:45:18;;;;;;;12.47;8.17;;;;;;;;;;5050141;28;20646;-66
2021/03/21 04:47:47;;;;;;;15.27;8.57;;;;;;;;;;5047408;28;20212;-66
2021/03/21 04:50:14;;;;;;;11.30;6.97;;;;;;;;;;5041591;28;20220;-66
2021/03/21 04:52:46;;;;;;;11.57;6.40;;;;;;;;;;5034071;28;20174;-67
2021/03/21 04:55:17;;;;;;;10.60;6.33;;;;;;;;;;5041026;28;20213;-67
2021/03/21 04:57:44;;;;;;;13.33;5.93;;;;;;;;;;5047644;28;20182;-67
2021/03/21 05:00:15;;;;;;;9.50;5.90;;;;;;;;;;5041716;28;20197;-66
2021/03/21 05:02:44;;;;;;;9.60;4.33;;;;;;;;;;5048101;28;20182;-67
2021/03/21 05:05:15;;;;;;;12.00;4.20;;;;;;;;;;5048418;28;20189;-67
2021/03/21 05:07:42;;;;;;;8.83;3.93;;;;;;;;;;5046834;28;20182;-67
2021/03/21 05:10:18;;;;;;;12.53;4.10;;;;;;;;;;5045745;28;20288;-67
2021/03/21 05:12:52;;;;;;;9.40;2.97;;;;;;;;;;5050715;28;20213;-67
2021/03/21 05:15:36;;;;;;;6.90;2.90;;;;;;;;;;5046071;28;20184;-66
2021/03/21 05:18:14;;;;;;;11.50;3.83;;;;;;;;;;5046457;28;20193;-67
2021/03/21 05:20:45;;;;;;;3.70;2.13;;;;;;;;;;5049360;28;20209;-67
2021/03/21 05:23:17;;;;;;;6.37;2.20;;;;;;;;;;5051111;28;20227;-67
2021/03/21 05:25:48;;;;;;;12.13;2.73;;;;;;;;;;5053094;28;20181;-66
2021/03/21 05:28:19;;;;;;;12.60;2.17;;;;;;;;;;5048236;28;20205;-67
2021/03/21 05:30:44;;;;;;;5.23;2.07;;;;;;;;;;5044927;28;20194;-67
2021/03/21 05:33:09;;;;;;;9.67;2.00;;;;;;;;;;5053396;28;20185;-66
2021/03/21 05:35:36;;;;;;;4.57;2.37;;;;;;;;;;5052210;28;20185;-67
2021/03/21 05:38:10;;;;;;;8.30;2.00;;;;;;;;;;5052220;28;20255;-67
2021/03/21 05:40:38;;;;;;;8.27;3.43;;;;;;;;;;5051174;28;20722;-66
2021/03/21 05:43:22;;;;;;;7.43;2.13;;;;;;;;;;5053276;28;20191;-66
2021/03/21 05:45:52;;;;;;;6.70;1.87;;;;;;;;;;5050088;28;20209;-67
2021/03/21 05:48:37;;;;;;;4.13;1.87;;;;;;;;;;5047123;28;20201;-67
2021/03/21 05:51:21;;;;;;;7.37;2.37;;;;;;;;;;5043005;28;20584;-67
2021/03/21 05:54:02;;;;;;;7.43;1.90;;;;;;;;;;5047463;28;20193;-67
2021/03/21 05:56:33;;;;;;;6.47;2.23;;;;;;;;;;5046843;28;20186;-66
2021/03/21 05:59:25;;;;;;;4.03;1.93;;;;;;;;;;5041245;28;20188;-67
2021/03/21 06:01:56;;;;;;;8.40;2.90;;;;;;;;;;5043704;28;20197;-67
2021/03/21 06:04:30;;;;;;;9.00;2.97;;;;;;;;;;5046815;28;20558;-67
2021/03/21 06:07:14;;;;;;;11.50;3.30;;;;;;;;;;5051324;28;20189;-67
2021/03/21 06:09:44;;;;;;;8.20;2.77;;;;;;;;;;5045732;28;20217;-67
2021/03/21 06:12:26;;;;;;;11.03;2.87;;;;;;;;;;5056647;28;20259;-67
2021/03/21 06:14:58;;;;;;;6.10;2.60;;;;;;;;;;5041566;28;20192;-67
2021/03/21 06:17:38;;;;;;;8.87;2.70;;;;;;;;;;5051076;28;20189;-67
2021/03/21 06:20:03;;;;;;;8.10;2.70;;;;;;;;;;5052603;28;20674;-67
2021/03/21 06:22:31;;;;;;;6.90;2.35;;;;;;;;;;5052530;28;20188;-67
2021/03/21 06:24:59;;;;;;;7.30;2.47;;;;;;;;;;5051317;28;20208;-67
2021/03/21 06:27:42;;;;;;;10.63;3.47;;;;;;;;;;5052185;28;20236;-66
2021/03/21 06:30:10;;;;;;;10.70;3.23;;;;;;;;;;5048867;28;20551;-66
2021/03/21 06:32:38;;;;;;;5.37;2.33;;;;;;;;;;5051209;28;20474;-67
2021/03/21 06:35:13;;;;;;;8.77;2.70;;;;;;;;;;5055466;28;20176;-67
2021/03/21 06:37:50;;;;;;;9.73;2.70;;;;;;;;;;5050428;28;20185;-67
2021/03/21 06:40:15;;;;;;;8.70;2.33;;;;;;;;;;5047517;28;20663;-67
2021/03/21 06:42:47;;;;;;;9.43;2.50;;;;;;;;;;5048228;28;20178;-67
2021/03/21 06:45:12;;;;;;;7.60;2.23;;;;;;;;;;5036275;28;20185;-67
2021/03/21 06:47:56;;;;;;;10.30;3.45;;;;;;;;;;5048034;28;20186;-66
2021/03/21 06:50:21;;;;;;;8.30;2.67;;;;;;;;;;5039757;28;20259;-66
2021/03/21 06:52:46;;;;;;;11.23;2.20;;;;;;;;;;5039924;28;20174;-67
2021/03/21 06:55:11;;;;;;;10.20;2.78;;;;;;;;;;5037786;28;20647;-67
2021/03/21 06:57:36;;;;;;;10.33;2.30;;;;;;;;;;5041391;28;20228;-66
2021/03/21 07:00:20;;;;;;;10.02;2.55;;;;;;;;;;5045809;28;20274;-66
2021/03/21 07:02:48;;;;;;;5.97;2.57;;;;;;;;;;5050899;28;20184;-67
2021/03/21 07:05:39;;;;;;;8.87;2.10;;;;;;;;;;5038888;28;20735;-67
2021/03/21 07:08:22;;;;;;;14.00;2.97;;;;;;;;;;5041553;28;20202;-68
2021/03/21 07:11:07;;;;;;;10.80;2.83;;;;;;;;;;5035979;28;20698;-67
2021/03/21 07:13:41;;;;;;;7.70;2.40;;;;;;;;;;5039490;28;20178;-67
2021/03/21 07:16:09;;;;;;;7.70;2.73;;;;;;;;;;5037515;28;20216;-66
2021/03/21 07:19:00;;;;;;;9.97;3.57;;;;;;;;;;5042907;28;20173;-66
2021/03/21 07:21:25;;;;;;;13.73;2.83;;;;;;;;;;5041657;28;20185;-66
2021/03/21 07:24:03;;;;;;;6.07;2.27;;;;;;;;;;5042696;28;20174;-65
2021/03/21 07:26:41;;;;;;;8.40;2.30;;;;;;;;;;5046713;28;20528;-67
2021/03/21 07:29:24;;;;;;;13.00;2.73;;;;;;;;;;5041644;28;20213;-67
2021/03/21 07:32:08;;;;;;;11.40;2.90;;;;;;;;;;5045371;28;20187;-67
2021/03/21 07:34:52;;;;;;;7.37;1.83;;;;;;;;;;5037729;28;20185;-67
2021/03/21 07:37:29;;;;;;;8.50;1.93;;;;;;;;;;5048595;28;20184;-67
2021/03/21 07:40:10;;;;;;;9.43;2.33;;;;;;;;;;5043285;28;20197;-67
2021/03/21 07:42:47;;;;;;;10.80;2.20;;;;;;;;;;5041694;28;20280;-67
2021/03/21 07:45:24;;;;;;;10.00;2.30;;;;;;;;;;5038621;28;20269;-66
2021/03/21 07:47:55;;;;;;;10.80;3.07;;;;;;;;;;5036636;28;20197;-67
2021/03/21 07:50:29;;;;;;;10.97;2.00;;;;;;;;;;5040639;28;20205;-66
2021/03/21 07:53:10;;;;;;;9.87;1.87;;;;;;;;;;5039819;28;20177;-66
2021/03/21 07:55:46;;;;;;;14.70;2.93;;;;;;;;;;5039460;28;20208;-67
2021/03/21 07:58:17;;;;;;;11.67;2.53;;;;;;;;;;5040380;28;20325;-66
2021/03/21 08:00:42;;;;;;;12.27;3.13;;;;;;;;;;5037570;28;20224;-67
2021/03/21 08:03:07;;;;;;;7.10;1.97;;;;;;;;;;5042081;28;20182;-66
2021/03/21 08:05:32;;;;;;;8.68;1.85;;;;;;;;;;5040263;28;20227;-66
2021/03/21 08:07:59;;;;;;;5.10;1.60;;;;;;;;;;5041982;28;20210;-65
2021/03/21 08:10:37;;;;;;;11.70;2.20;;;;;;;;;;5036984;28;20217;-66
2021/03/21 08:13:06;;;;;;;12.43;2.77;;;;;;;;;;5036755;28;20174;-67
2021/03/21 08:15:35;;;;;;;8.17;2.37;;;;;;;;;;5038326;28;20655;-67
2021/03/21 08:18:00;;;;;;;6.83;1.80;;;;;;;;;;5036971;28;20178;-66
2021/03/21 08:20:28;;;;;;;10.57;2.28;;;;;;;;;;5034889;28;20197;-67
2021/03/21 08:23:13;;;;;;;7.00;2.17;;;;;;;;;;5035765;28;20217;-66
2021/03/21 08:25:38;;;;;;;8.83;3.60;;;;;;;;;;5036466;28;20177;-67
2021/03/21 08:28:04;;;;;;;10.93;2.73;;;;;;;;;;5038834;28;20202;-68
2021/03/21 08:30:47;;;;;;;9.53;2.43;;;;;;;;;;5035793;28;20649;-68
2021/03/21 08:33:23;;;;;;;13.47;2.43;;;;;;;;;;5039237;28;20585;-67
2021/03/21 08:36:04;;;;;;;11.87;3.93;;;;;;;;;;5039063;28;20264;-67
2021/03/21 08:38:29;;;;;;;9.13;2.33;;;;;;;;;;5037484;28;20201;-67
2021/03/21 08:40:58;;;;;;;19.73;3.20;;;;;;;;;;5053585;28;20240;-66
2021/03/21 08:43:26;;;;;;;11.90;3.40;;;;;;;;;;5038238;28;20185;-66
2021/03/21 08:46:01;;;;;;;16.20;3.03;;;;;;;;;;5037650;28;20279;-67
2021/03/21 08:48:30;;;;;;;15.60;2.73;;;;;;;;;;5042445;28;20306;-68
2021/03/21 08:50:57;;;;;;;17.90;3.00;;;;;;;;;;5040102;28;20209;-66
2021/03/21 08:53:22;;;;;;;12.10;2.73;;;;;;;;;;5041581;28;20292;-67
2021/03/21 08:55:47;;;;;;;13.65;3.45;;;;;;;;;;5040053;28;20315;-66
2021/03/21 08:58:20;;;;;;;8.63;2.37;;;;;;;;;;5039040;28;20197;-67
2021/03/21 09:00:45;;;;;;;18.10;3.87;;;;;;;;;;5043974;28;20216;-66
2021/03/21 09:03:17;;;;;;;14.13;3.87;;;;;;;;;;5050595;28;20174;-67
2021/03/21 09:05:53;;;;;;;18.30;5.50;;;;;;;;;;5042918;28;20311;-67
2021/03/21 09:08:21;;;;;;;14.93;3.07;;;;;;;;;;5043724;28;20204;-66
2021/03/21 09:10:54;;;;;;;11.17;2.20;;;;;;;;;;5050983;28;20237;-67
2021/03/21 09:13:21;;;;;;;16.80;3.37;;;;;;;;;;5051704;28;20689;-66
2021/03/21 09:15:59;;;;;;;14.63;4.07;;;;;;;;;;5048710;28;20186;-67
2021/03/21 09:18:26;;;;;;;19.07;4.13;;;;;;;;;;5038893;28;20249;-67
2021/03/21 09:21:04;;;;;;;17.63;4.30;;;;;;;;;;5045476;28;20213;-67
2021/03/21 09:23:30;;;;;;;13.20;3.50;;;;;;;;;;5048413;28;20185;-66
2021/03/21 09:25:56;;;;;;;15.93;3.10;;;;;;;;;;5049392;28;20667;-67
2021/03/21 09:28:22;;;;;;;11.43;3.60;;;;;;;;;;5044738;28;21632;-67
2021/03/21 09:30:48;;;;;;;17.40;4.30;;;;;;;;;;5044250;28;20667;-65
2021/03/21 09:33:14;;;;;;;16.07;3.13;;;;;;;;;;5040571;28;20185;-67
2021/03/21 09:35:45;;;;;;;13.10;3.33;;;;;;;;;;5040344;28;20189;-66
2021/03/21 09:38:10;;;;;;;22.17;4.53;;;;;;;;;;5045393;28;20790;-66
2021/03/21 09:40:37;;;;;;;20.77;4.17;;;;;;;;;;5041431;28;22116;-67
2021/03/21 09:43:03;;;;;;;15.53;3.70;;;;;;;;;;5041156;28;21944;-66
2021/03/21 09:45:30;;;;;;;15.70;3.20;;;;;;;;;;5040559;28;20185;-67
2021/03/21 09:47:57;;;;;;;17.83;3.90;;;;;;;;;;5046236;28;20205;-66
2021/03/21 09:50:29;;;;;;;18.87;4.23;;;;;;;;;;5052170;28;20201;-67
2021/03/21 09:53:03;;;;;;;19.30;5.27;;;;;;;;;;5044239;28;20177;-66
2021/03/21 09:55:52;;;;;;;21.57;4.67;;;;;;;;;;5051287;28;20222;-66
2021/03/21 09:58:20;;;;;;;15.90;4.17;;;;;;;;;;5049780;28;20205;-67
2021/03/21 10:00:52;;;;;;;19.33;5.57;;;;;;;;;;5053266;28;20675;-67
2021/03/21 10:03:20;;;;;;;18.03;3.77;;;;;;;;;;5050914;28;20186;-66
2021/03/21 10:05:48;;;;;;;17.17;3.80;;;;;;;;;;5052314;28;20204;-67
2021/03/21 10:08:19;;;;;;;17.57;3.87;;;;;;;;;;5049663;28;20618;-67
2021/03/21 10:10:51;;;;;;;17.17;4.10;;;;;;;;;;5056280;28;20189;-67
2021/03/21 10:13:29;;;;;;;15.47;4.10;;;;;;;;;;5048512;28;20690;-66
2021/03/21 10:16:13;;;;;;;21.13;4.47;;;;;;;;;;5053340;28;20654;-67
2021/03/21 10:18:39;;;;;;;19.70;3.90;;;;;;;;;;5042654;28;20643;-67
2021/03/21 10:21:05;;;;;;;19.07;4.40;;;;;;;;;;5050676;28;20288;-67
2021/03/21 10:23:52;;;;;;;22.30;4.87;;;;;;;;;;5048878;28;20310;-67
2021/03/21 10:26:18;;;;;;;15.60;5.50;;;;;;;;;;5045174;28;20208;-67
2021/03/21 10:29:22;;;;;;;15.40;3.53;;;;;;;;;;5052276;28;20217;-66
2021/03/21 10:31:47;;;;;;;16.00;3.90;;;;;;;;;;5047759;28;20292;-67
2021/03/21 10:34:12;;;;;;;13.70;3.73;;;;;;;;;;5050386;28;20269;-67
2021/03/21 10:36:38;;;;;;;20.83;4.00;;;;;;;;;;5053503;28;20182;-67
2021/03/21 10:39:03;;;;;;;16.13;3.50;;;;;;;;;;5051141;28;20186;-67
2021/03/21 10:41:49;;;;;;;19.10;4.53;;;;;;;;;;5050138;28;20190;-67
2021/03/21 10:44:14;;;;;;;14.53;3.83;;;;;;;;;;5042560;28;20272;-67
2021/03/21 10:46:44;;;;;;;14.60;3.67;;;;;;;;;;5048313;28;20616;-66
2021/03/21 10:49:09;;;;;;;27.93;6.43;;;;;;;;;;5049695;28;20206;-67
2021/03/21 10:52:10;;;;;;;13.03;3.57;;;;;;;;;;5044992;28;20185;-67
2021/03/21 10:54:35;;;;;;;39.43;5.83;;;;;;;;;;5066682;28;20549;-67
2021/03/21 10:57:19;;;;;;;20.77;4.30;;;;;;;;;;5052913;28;20193;-66
2021/03/21 11:00:10;;;;;;;14.00;3.67;;;;;;;;;;5045797;28;20205;-66
2021/03/21 11:02:36;;;;;;;17.27;4.10;;;;;;;;;;5050934;28;20243;-66
2021/03/21 11:05:06;;;;;;;19.03;5.33;;;;;;;;;;5049181;28;20190;-67
2021/03/21 11:07:31;;;;;;;17.73;4.50;;;;;;;;;;5050526;28;20193;-65
2021/03/21 11:10:01;;;;;;;20.90;3.90;;;;;;;;;;5047376;28;20247;-66
2021/03/21 11:12:27;;;;;;;13.13;4.27;;;;;;;;;;5049091;28;20197;-69
2021/03/21 11:14:53;;;;;;;20.23;4.73;;;;;;;;;;5047296;28;20261;-66
2021/03/21 11:17:21;;;;;;;18.07;3.87;;;;;;;;;;5046563;28;20284;-66
2021/03/21 11:19:50;;;;;;;20.97;4.60;;;;;;;;;;5053246;28;20258;-69
2021/03/21 11:22:32;;;;;;;18.27;4.27;;;;;;;;;;5050561;28;20608;-65
2021/03/21 11:24:57;;;;;;;13.53;3.83;;;;;;;;;;5040827;28;20456;-69
2021/03/21 11:27:24;;;;;;;19.37;3.77;;;;;;;;;;5049634;28;20177;-69
2021/03/21 11:29:50;;;;;;;19.00;5.13;;;;;;;;;;5049434;28;20240;-66
2021/03/21 11:32:35;;;;;;;14.77;4.70;;;;;;;;;;5042792;28;20537;-67
2021/03/21 11:35:03;;;;;;;18.13;4.10;;;;;;;;;;5044565;28;20186;-66
2021/03/21 11:37:42;;;;;;;17.10;5.03;;;;;;;;;;5044599;28;20183;-68
2021/03/21 11:40:23;;;;;;;20.33;4.83;;;;;;;;;;5048612;28;20276;-66
2021/03/21 11:43:03;;;;;;;17.10;3.53;;;;;;;;;;5041446;28;20259;-68
2021/03/21 11:45:29;;;;;;;14.67;3.83;;;;;;;;;;5047780;28;20184;-69
2021/03/21 11:47:55;;;;;;;18.73;3.90;;;;;;;;;;5046501;28;20554;-67
2021/03/21 11:50:20;;;;;;;17.97;6.30;;;;;;;;;;5047870;28;20201;-67
2021/03/21 11:52:46;;;;;;;16.13;4.47;;;;;;;;;;5048059;28;20174;-67
2021/03/21 11:55:19;;;;;;;14.87;4.17;;;;;;;;;;5047775;28;20515;-66
2021/03/21 11:57:59;;;;;;;14.70;4.20;;;;;;;;;;5047629;28;20730;-67
2021/03/21 12:00:27;;;;;;;18.07;5.43;;;;;;;;;;5048147;28;20228;-67
2021/03/21 12:03:05;;;;;;;21.87;5.97;;;;;;;;;;5043893;28;20228;-66
2021/03/21 12:05:35;;;;;;;16.77;4.20;;;;;;;;;;5033249;28;20672;-67
2021/03/21 12:08:19;;;;;;;24.67;6.37;;;;;;;;;;5040133;28;20206;-67
2021/03/21 12:10:44;;;;;;;18.50;4.40;;;;;;;;;;5048030;28;20201;-67
2021/03/21 12:13:30;;;;;;;21.07;4.03;;;;;;;;;;5043147;28;20196;-66
2021/03/21 12:15:56;;;;;;;16.90;4.13;;;;;;;;;;5039836;28;20172;-66
2021/03/21 12:18:22;;;;;;;17.93;4.10;;;;;;;;;;5044712;28;20183;-67
2021/03/21 12:20:47;;;;;;;24.17;4.27;;;;;;;;;;5045046;28;20205;-66
2021/03/21 12:23:24;;;;;;;22.17;5.77;;;;;;;;;;5038442;28;20178;-67
2021/03/21 12:26:01;;;;;;;23.63;5.20;;;;;;;;;;5046399;28;20217;-65
2021/03/21 12:28:27;;;;;;;22.43;5.53;;;;;;;;;;5041211;28;20208;-67
2021/03/21 12:30:53;;;;;;;17.70;4.23;;;;;;;;;;5048567;28;20189;-67
2021/03/21 12:33:21;;;;;;;16.33;4.57;;;;;;;;;;5045666;28;20280;-68
2021/03/21 12:35:47;;;;;;;18.90;4.50;;;;;;;;;;5046453;28;20180;-68
2021/03/21 12:38:33;;;;;;;21.60;4.77;;;;;;;;;;5042027;28;20548;-69
2021/03/21 12:41:18;;;;;;;20.03;4.83;;;;;;;;;;5045201;28;20255;-68
2021/03/21 12:43:43;;;;;;;17.07;3.77;;;;;;;;;;5047783;28;20654;-68
2021/03/21 12:46:10;;;;;;;24.30;4.77;;;;;;;;;;5048494;28;20181;-66
2021/03/21 12:48:53;;;;;;;16.13;4.47;;;;;;;;;;5049136;28;20222;-67
2021/03/21 12:51:25;;;;;;;15.67;3.50;;;;;;;;;;5049689;28;20246;-68
2021/03/21 12:53:51;;;;;;;16.63;4.10;;;;;;;;;;5042181;28;20257;-67
2021/03/21 12:56:16;;;;;;;19.47;3.77;;;;;;;;;;5047169;28;20272;-68
2021/03/21 12:58:41;;;;;;;18.20;4.17;;;;;;;;;;5043348;28;20174;-66
2021/03/21 13:01:07;;;;;;;11.90;4.30;;;;;;;;;;5039933;28;20674;-67
2021/03/21 13:03:33;;;;;;;16.87;4.33;;;;;;;;;;5042948;28;20718;-67
2021/03/21 13:05:59;;;;;;;17.00;4.20;;;;;;;;;;5047235;28;20587;-67
2021/03/21 13:08:25;;;;;;;17.67;4.60;;;;;;;;;;5041080;28;20671;-66
2021/03/21 13:10:50;;;;;;;19.47;3.77;;;;;;;;;;5044218;28;20251;-67
2021/03/21 13:13:16;;;;;;;16.50;4.30;;;;;;;;;;5044495;28;20537;-66
2021/03/21 13:15:41;;;;;;;20.97;4.27;;;;;;;;;;5048536;28;20174;-66
2021/03/21 13:18:06;;;;;;;17.60;4.10;;;;;;;;;;5044601;28;20190;-67
2021/03/21 13:20:32;;;;;;;15.27;4.30;;;;;;;;;;5047091;28;20259;-66
2021/03/21 13:22:57;;;;;;;23.43;4.40;;;;;;;;;;5046332;28;20705;-67
2021/03/21 13:25:25;;;;;;;17.67;5.47;;;;;;;;;;5049570;28;20189;-67
2021/03/21 13:27:55;;;;;;;16.33;3.50;;;;;;;;;;5042932;28;20190;-66
2021/03/21 13:30:21;;;;;;;17.47;5.00;;;;;;;;;;5049816;28;20204;-67
2021/03/21 13:32:47;;;;;;;19.63;3.93;;;;;;;;;;5048148;28;20189;-67
2021/03/21 13:35:12;;;;;;;20.63;4.33;;;;;;;;;;5049014;28;20700;-67
2021/03/21 13:37:37;;;;;;;34.07;8.87;;;;;;;;;;5039616;28;20178;-66
2021/03/21 13:40:04;;;;;;;19.40;5.73;;;;;;;;;;5051364;28;20201;-68
2021/03/21 13:42:29;;;;;;;17.97;3.83;;;;;;;;;;5044209;28;20186;-67
2021/03/21 13:44:56;;;;;;;19.80;4.57;;;;;;;;;;5048593;28;20182;-67
2021/03/21 13:47:21;;;;;;;14.13;3.87;;;;;;;;;;5049190;28;20670;-67
2021/03/21 13:49:46;;;;;;;21.10;4.33;;;;;;;;;;5050239;28;20222;-67
2021/03/21 13:52:11;;;;;;;24.87;5.13;;;;;;;;;;5049828;28;20182;-67
2021/03/21 13:54:37;;;;;;;18.67;4.57;;;;;;;;;;5051723;28;20173;-67
2021/03/21 13:57:03;;;;;;;14.13;5.00;;;;;;;;;;5048968;28;20251;-67
2021/03/21 13:59:28;;;;;;;15.70;4.43;;;;;;;;;;5049598;28;20284;-67
2021/03/21 14:01:53;;;;;;;16.27;3.60;;;;;;;;;;5041695;28;20196;-66
2021/03/21 14:04:18;;;;;;;12.80;4.37;;;;;;;;;;5044704;28;20216;-67
2021/03/21 14:06:43;;;;;;;23.03;4.57;;;;;;;;;;5050445;28;20265;-66
2021/03/21 14:09:08;;;;;;;21.23;4.00;;;;;;;;;;5045822;28;20259;-67
2021/03/21 14:11:33;;;;;;;22.37;5.10;;;;;;;;;;5046638;28;20189;-67
2021/03/21 14:13:59;;;;;;;22.43;4.77;;;;;;;;;;5047223;28;20177;-67
2021/03/21 14:16:24;;;;;;;14.90;4.20;;;;;;;;;;5053156;28;20630;-68
2021/03/21 14:18:49;;;;;;;17.17;4.53;;;;;;;;;;5044477;28;20182;-67
2021/03/21 14:21:15;;;;;;;20.07;4.07;;;;;;;;;;5053408;28;20229;-66
2021/03/21 14:23:40;;;;;;;18.30;4.30;;;;;;;;;;5044892;28;20178;-67
2021/03/21 14:26:05;;;;;;;18.60;5.20;;;;;;;;;;5049854;28;20181;-67
2021/03/21 14:28:34;;;;;;;18.13;3.30;;;;;;;;;;5043313;28;20206;-67
2021/03/21 14:31:00;;;;;;;22.97;5.60;;;;;;;;;;5044591;28;20655;-67
2021/03/21 14:33:25;;;;;;;20.17;4.23;;;;;;;;;;5045985;28;20205;-67
2021/03/21 14:35:50;;;;;;;14.83;4.00;;;;;;;;;;5044075;28;20177;-67
2021/03/21 14:38:17;;;;;;;17.20;4.57;;;;;;;;;;5052081;28;20170;-67
2021/03/21 14:40:43;;;;;;;17.23;4.83;;;;;;;;;;5049891;28;20256;-66
2021/03/21 14:43:10;;;;;;;25.37;5.20;;;;;;;;;;5049947;28;20676;-67
2021/03/21 14:45:35;;;;;;;18.10;4.03;;;;;;;;;;5044160;28;20549;-67
2021/03/21 14:48:01;;;;;;;20.37;5.03;;;;;;;;;;5048964;28;20181;-67
2021/03/21 14:50:26;;;;;;;26.53;4.37;;;;;;;;;;5048473;28;20698;-67